Aviation Digital Data Service (ADDS)

Output produced by TAFs form (0623 UTC 02 October 2014)
found at http://aviationweather.gov/adds/tafs/
 
KABQ 020522Z 0206/0306 35009KT P6SM SCT120 
     FM021200 01011KT P6SM SKC 
     FM021800 33010G17KT P6SM SKC